createdAt,value
2018-08-06T00:02:18.388Z,78.70
2018-08-06T00:04:52.990Z,80.60
2018-08-06T00:07:27.538Z,81.20
2018-08-06T00:10:02.115Z,81.40
2018-08-06T00:12:36.698Z,82.00
2018-08-06T00:15:10.419Z,82.20
2018-08-06T00:17:44.287Z,84.00
2018-08-06T00:20:18.013Z,83.70
2018-08-06T00:22:51.682Z,84.60
2018-08-06T00:25:25.516Z,84.00
2018-08-06T00:27:59.280Z,84.40
2018-08-06T00:30:34.675Z,85.30
2018-08-06T00:33:09.042Z,85.70
2018-08-06T00:35:42.994Z,85.40
2018-08-06T00:38:16.668Z,86.70
2018-08-06T00:40:50.456Z,86.90
2018-08-06T00:43:25.012Z,87.60
2018-08-06T00:45:58.868Z,87.60
2018-08-06T00:48:33.436Z,89.10
2018-08-06T00:51:07.864Z,89.20
2018-08-06T00:53:41.721Z,89.20
2018-08-06T00:56:15.577Z,90.40
2018-08-06T00:58:49.448Z,90.20
2018-08-06T01:01:24.140Z,91.30
2018-08-06T01:03:57.944Z,91.20
2018-08-06T01:06:32.612Z,92.30
2018-08-06T01:09:07.192Z,92.90
2018-08-06T01:11:40.891Z,92.90
2018-08-06T01:14:15.496Z,92.80
2018-08-06T01:16:49.240Z,92.80
2018-08-06T01:19:22.916Z,93.20
2018-08-06T01:21:57.537Z,93.60
2018-08-06T01:24:31.446Z,93.50
2018-08-06T01:27:05.251Z,93.90
2018-08-06T01:29:40.699Z,94.50
2018-08-06T01:32:14.444Z,94.50
2018-08-06T01:34:49.013Z,94.60
2018-08-06T01:37:23.516Z,94.60
2018-08-06T01:39:58.068Z,94.20
2018-08-06T01:42:31.876Z,94.10
2018-08-06T01:45:05.687Z,94.00
2018-08-06T01:47:39.470Z,94.10
2018-08-06T01:50:13.483Z,94.60
2018-08-06T01:52:47.307Z,94.30
2018-08-06T01:55:21.037Z,94.70
2018-08-06T01:57:54.854Z,94.80
2018-08-06T02:00:29.317Z,96.50
2018-08-06T02:03:03.194Z,96.60
2018-08-06T02:05:37.261Z,96.80
2018-08-06T02:08:11.742Z,96.80
2018-08-06T02:10:46.430Z,96.40
2018-08-06T02:13:20.911Z,96.50
2018-08-06T02:15:54.628Z,96.20
2018-08-06T02:18:28.284Z,97.00
2018-08-06T02:21:01.957Z,97.50
2018-08-06T02:23:36.675Z,97.60
2018-08-06T02:26:10.454Z,97.60
2018-08-06T02:28:44.355Z,97.70
2018-08-06T02:31:18.180Z,97.70
2018-08-06T02:33:51.970Z,98.40
2018-08-06T02:36:25.610Z,98.60
2018-08-06T02:38:59.547Z,99.50
2018-08-06T02:41:34.112Z,99.90
2018-08-06T02:44:07.856Z,99.90
2018-08-06T02:46:41.799Z,99.90
2018-08-06T02:49:15.579Z,99.90
2018-08-06T02:51:50.891Z,99.90
2018-08-06T02:54:24.743Z,99.90
2018-08-06T02:56:58.607Z,99.90
2018-08-06T02:59:32.473Z,99.90
2018-08-06T03:02:06.273Z,99.90
2018-08-06T03:04:40.913Z,99.90
2018-08-06T03:07:15.567Z,99.90
2018-08-06T03:09:49.342Z,99.90
2018-08-06T03:12:23.115Z,99.90
2018-08-06T03:14:56.878Z,99.90
2018-08-06T03:17:30.578Z,99.90
2018-08-06T03:20:05.207Z,99.90
2018-08-06T03:22:39.840Z,99.90
2018-08-06T03:25:14.328Z,99.90
2018-08-06T03:27:48.167Z,99.90
2018-08-06T03:30:22.756Z,99.90
2018-08-06T03:32:56.596Z,99.90
2018-08-06T03:35:30.411Z,99.90
2018-08-06T03:38:04.240Z,99.90
2018-08-06T03:40:38.165Z,99.90
2018-08-06T03:43:12.851Z,99.90
2018-08-06T03:45:46.688Z,99.90
2018-08-06T03:48:20.374Z,99.90
2018-08-06T03:50:54.175Z,99.90
2018-08-06T03:53:28.784Z,99.90
2018-08-06T03:56:03.450Z,99.90
2018-08-06T03:58:37.217Z,99.90
2018-08-06T04:01:11.827Z,99.90
2018-08-06T04:03:45.716Z,99.90
2018-08-06T04:06:21.006Z,99.90
2018-08-06T04:08:55.584Z,99.90
2018-08-06T04:11:30.247Z,99.90
2018-08-06T04:14:04.014Z,99.90
2018-08-06T04:16:38.600Z,99.90
2018-08-06T04:19:12.303Z,99.90
2018-08-06T04:21:46.085Z,99.90
2018-08-06T04:24:20.722Z,99.90
2018-08-06T04:26:55.376Z,99.90
2018-08-06T04:29:29.103Z,99.90
2018-08-06T04:32:03.899Z,99.90
2018-08-06T04:34:37.696Z,99.90
2018-08-06T04:37:12.088Z,99.90
2018-08-06T04:39:45.805Z,99.90
2018-08-06T04:42:19.620Z,99.90
2018-08-06T04:44:54.140Z,99.90
2018-08-06T04:47:27.931Z,99.90
2018-08-06T04:50:02.581Z,99.90
2018-08-06T04:52:36.371Z,99.90
2018-08-06T04:55:10.100Z,99.90
2018-08-06T04:57:44.304Z,99.90
2018-08-06T05:00:18.293Z,99.90
2018-08-06T05:02:53.861Z,99.90
2018-08-06T05:05:29.292Z,99.90
2018-08-06T05:08:03.899Z,99.90
2018-08-06T05:10:38.769Z,99.90
2018-08-06T05:13:13.341Z,99.90
2018-08-06T05:15:48.008Z,99.90
2018-08-06T05:18:21.800Z,99.90
2018-08-06T05:20:56.420Z,99.90
2018-08-06T05:23:31.026Z,99.90
2018-08-06T05:26:04.883Z,99.90
2018-08-06T05:28:39.396Z,99.90
2018-08-06T05:31:13.610Z,99.90
2018-08-06T05:33:48.108Z,99.90
2018-08-06T05:36:22.226Z,99.90
2018-08-06T05:38:56.962Z,99.90
2018-08-06T05:41:30.567Z,99.90
2018-08-06T05:44:05.234Z,99.90
2018-08-06T05:46:39.748Z,99.90
2018-08-06T05:49:14.409Z,99.90
2018-08-06T05:51:52.333Z,99.90
2018-08-06T05:54:26.137Z,99.90
2018-08-06T05:57:00.155Z,99.90
2018-08-06T05:59:37.840Z,99.90
2018-08-06T06:02:11.735Z,99.90
2018-08-06T06:04:46.388Z,99.90
2018-08-06T06:07:20.792Z,99.90
2018-08-06T06:09:54.572Z,99.90
2018-08-06T06:12:29.246Z,99.90
2018-08-06T06:15:02.879Z,99.90
2018-08-06T06:17:37.364Z,99.90
2018-08-06T06:20:11.185Z,99.90
2018-08-06T06:22:45.070Z,99.90
2018-08-06T06:25:19.692Z,99.90
2018-08-06T06:27:54.379Z,99.90
2018-08-06T06:30:28.900Z,99.90
2018-08-06T06:33:03.468Z,99.90
2018-08-06T06:35:37.259Z,99.90
2018-08-06T06:38:11.166Z,99.90
2018-08-06T06:40:44.898Z,99.90
2018-08-06T06:43:18.884Z,99.90
2018-08-06T06:45:54.260Z,99.90
2018-08-06T06:48:29.492Z,99.90
2018-08-06T06:51:03.255Z,99.90
2018-08-06T06:53:39.416Z,99.90
2018-08-06T06:56:13.664Z,99.90
2018-08-06T06:58:48.818Z,99.90
2018-08-06T07:01:22.796Z,99.80
2018-08-06T07:03:57.284Z,98.90
2018-08-06T07:06:31.899Z,98.30
2018-08-06T07:09:05.846Z,98.30
2018-08-06T07:11:40.916Z,98.40
2018-08-06T07:14:14.767Z,98.40
2018-08-06T07:16:48.561Z,97.90
2018-08-06T07:19:26.883Z,98.20
2018-08-06T07:22:00.454Z,97.60
2018-08-06T07:24:35.051Z,97.40
2018-08-06T07:27:08.714Z,97.40
2018-08-06T07:29:43.363Z,96.10
2018-08-06T07:32:17.524Z,96.10
2018-08-06T07:34:51.677Z,96.10
2018-08-06T07:37:25.600Z,96.00
2018-08-06T07:40:01.047Z,94.40
2018-08-06T07:42:34.653Z,94.40
2018-08-06T07:45:08.474Z,93.60
2018-08-06T07:47:42.271Z,93.10
2018-08-06T07:50:15.980Z,93.20
2018-08-06T07:52:50.582Z,94.40
2018-08-06T07:55:24.506Z,94.10
2018-08-06T07:57:58.293Z,94.10
2018-08-06T08:00:32.945Z,92.90
2018-08-06T08:03:06.776Z,92.90
2018-08-06T08:05:41.415Z,92.60
2018-08-06T08:08:15.964Z,92.50
2018-08-06T08:10:49.884Z,92.50
2018-08-06T08:13:24.385Z,90.50
2018-08-06T08:15:58.193Z,90.80
2018-08-06T08:18:32.827Z,90.00
2018-08-06T08:21:08.140Z,89.50
2018-08-06T08:23:42.671Z,89.90
2018-08-06T08:26:17.137Z,90.00
2018-08-06T08:28:51.785Z,84.00
2018-08-06T08:31:25.698Z,83.20
2018-08-06T08:33:59.538Z,78.80
2018-08-06T08:36:33.362Z,76.80
2018-08-06T08:39:07.152Z,75.10
2018-08-06T08:41:40.970Z,73.00
2018-08-06T08:44:14.727Z,72.80
2018-08-06T08:46:48.760Z,70.10
2018-08-06T08:49:22.702Z,66.20
2018-08-06T08:51:56.448Z,65.40
2018-08-06T08:54:30.212Z,64.20
2018-08-06T08:57:04.139Z,62.60
2018-08-06T08:59:37.751Z,61.50
2018-08-06T09:02:11.675Z,61.00
2018-08-06T09:04:45.536Z,60.80
2018-08-06T09:07:20.322Z,61.90
2018-08-06T09:09:54.336Z,61.90
2018-08-06T09:12:28.021Z,61.80
2018-08-06T09:15:01.865Z,59.90
2018-08-06T09:17:36.456Z,58.70
2018-08-06T09:20:10.397Z,58.40
2018-08-06T09:22:44.231Z,58.60
2018-08-06T09:25:19.472Z,55.70
2018-08-06T09:27:53.145Z,55.60
2018-08-06T09:30:26.954Z,55.40
2018-08-06T09:33:01.495Z,54.40
2018-08-06T09:35:35.389Z,54.30
2018-08-06T09:38:09.039Z,53.70
2018-08-06T09:40:42.820Z,53.80
2018-08-06T09:43:16.732Z,52.60
2018-08-06T09:45:51.631Z,52.80
2018-08-06T09:48:25.508Z,52.80
2018-08-06T09:50:59.983Z,53.70
2018-08-06T09:53:33.818Z,53.70
2018-08-06T09:56:07.539Z,52.90
2018-08-06T09:58:42.159Z,51.40
2018-08-06T10:01:15.992Z,51.30
2018-08-06T10:03:49.816Z,50.00
2018-08-06T10:06:23.644Z,49.80
2018-08-06T10:08:58.187Z,48.80
2018-08-06T10:11:32.778Z,48.50
2018-08-06T10:14:06.646Z,48.50
2018-08-06T10:16:41.116Z,47.40
2018-08-06T10:19:14.875Z,47.40
2018-08-06T10:21:48.539Z,47.40
2018-08-06T10:24:22.373Z,47.50
2018-08-06T10:26:57.595Z,47.40
2018-08-06T10:29:31.348Z,47.40
2018-08-06T10:32:05.103Z,47.90
2018-08-06T10:34:39.653Z,48.60
2018-08-06T10:37:13.664Z,48.60
2018-08-06T10:39:47.492Z,47.70
2018-08-06T10:42:22.713Z,46.80
2018-08-06T10:44:56.650Z,46.80
2018-08-06T10:47:31.320Z,46.90
2018-08-06T10:50:05.079Z,46.90
2018-08-06T10:52:38.889Z,46.70
2018-08-06T10:55:12.631Z,47.40
2018-08-06T10:57:46.339Z,47.50
2018-08-06T11:00:19.977Z,46.70
2018-08-06T11:02:53.845Z,45.50
2018-08-06T11:05:28.371Z,44.40
2018-08-06T11:08:01.976Z,44.30
2018-08-06T11:10:36.638Z,44.00
2018-08-06T11:13:10.645Z,44.00
2018-08-06T11:15:44.639Z,44.40
2018-08-06T11:18:18.430Z,45.10
2018-08-06T11:20:52.921Z,45.50
2018-08-06T11:23:30.977Z,45.80
2018-08-06T11:26:05.870Z,45.60
2018-08-06T11:28:40.625Z,45.10
2018-08-06T11:31:14.256Z,45.10
2018-08-06T11:33:48.090Z,45.10
2018-08-06T11:36:22.183Z,45.40
2018-08-06T11:38:56.048Z,45.50
2018-08-06T11:41:29.691Z,45.90
2018-08-06T11:44:04.173Z,45.20
2018-08-06T11:46:39.972Z,45.20
2018-08-06T11:49:14.530Z,45.80
2018-08-06T11:51:48.206Z,45.40
2018-08-06T11:54:24.410Z,45.30
2018-08-06T11:56:58.178Z,44.30
2018-08-06T11:59:32.784Z,43.80
2018-08-06T12:02:06.471Z,43.70
2018-08-06T12:04:40.276Z,43.70
2018-08-06T12:07:14.231Z,43.90
2018-08-06T12:09:48.040Z,43.80
2018-08-06T12:12:21.788Z,44.20
2018-08-06T12:14:56.064Z,44.30
2018-08-06T12:17:29.755Z,44.30
2018-08-06T12:20:03.492Z,44.40
2018-08-06T12:22:37.368Z,44.40
2018-08-06T12:25:11.146Z,44.40
2018-08-06T12:27:44.985Z,44.20
2018-08-06T12:30:18.728Z,43.90
2018-08-06T12:32:56.997Z,43.80
2018-08-06T12:35:30.829Z,44.10
2018-08-06T12:38:04.592Z,43.60
2018-08-06T12:40:38.448Z,43.50
2018-08-06T12:43:12.160Z,43.40
2018-08-06T12:45:57.681Z,43.30
2018-08-06T12:48:31.477Z,43.80
2018-08-06T12:51:06.033Z,44.30
2018-08-06T12:53:40.236Z,44.30
2018-08-06T12:56:13.959Z,43.80
2018-08-06T12:58:47.714Z,44.20
2018-08-06T13:01:21.395Z,43.10
2018-08-06T13:03:57.246Z,43.50
2018-08-06T13:06:30.842Z,43.00
2018-08-06T13:09:04.592Z,43.10
2018-08-06T13:11:38.363Z,42.80
2018-08-06T13:14:11.968Z,42.80
2018-08-06T13:16:45.851Z,43.20
2018-08-06T13:19:19.467Z,42.80
2018-08-06T13:21:53.329Z,42.60
2018-08-06T13:24:27.113Z,42.60
2018-08-06T13:27:01.681Z,42.70
2018-08-06T13:29:36.012Z,42.60
2018-08-06T13:32:09.721Z,43.30
2018-08-06T13:34:44.396Z,42.40
2018-08-06T13:37:19.075Z,41.50
2018-08-06T13:39:53.723Z,42.10
2018-08-06T13:42:27.506Z,42.10
2018-08-06T13:45:01.428Z,41.90
2018-08-06T13:47:35.219Z,42.20
2018-08-06T13:50:08.930Z,42.40
2018-08-06T13:52:42.759Z,43.40
2018-08-06T13:55:17.672Z,42.30
2018-08-06T13:57:52.130Z,42.30
2018-08-06T14:00:25.902Z,42.00
2018-08-06T14:02:59.742Z,42.30
2018-08-06T14:05:34.273Z,42.80
2018-08-06T14:08:08.137Z,42.20
2018-08-06T14:10:41.930Z,42.20
2018-08-06T14:13:15.675Z,42.30
2018-08-06T14:15:49.651Z,42.20
2018-08-06T14:18:23.452Z,42.20
2018-08-06T14:20:57.299Z,41.70
2018-08-06T14:23:32.936Z,41.80
2018-08-06T14:26:07.386Z,42.20
2018-08-06T14:28:43.133Z,41.70
2018-08-06T14:31:16.945Z,41.50
2018-08-06T14:33:50.720Z,41.40
2018-08-06T14:36:25.295Z,42.40
2018-08-06T14:38:59.893Z,42.40
2018-08-06T14:41:33.740Z,42.10
2018-08-06T14:44:08.333Z,42.20
2018-08-06T14:46:43.001Z,43.00
2018-08-06T14:49:17.629Z,42.50
2018-08-06T14:51:51.509Z,42.50
2018-08-06T14:54:25.404Z,42.00
2018-08-06T14:56:59.989Z,41.30
2018-08-06T14:59:34.629Z,41.00
2018-08-06T15:02:08.344Z,41.40
2018-08-06T15:04:42.269Z,41.30
2018-08-06T15:07:21.010Z,41.40
2018-08-06T15:09:54.858Z,41.00
2018-08-06T15:12:29.094Z,41.00
2018-08-06T15:15:02.849Z,40.70
2018-08-06T15:17:36.691Z,40.80
2018-08-06T15:20:10.525Z,40.70
2018-08-06T15:22:44.437Z,40.70
2018-08-06T15:25:18.866Z,40.90
2018-08-06T15:27:53.437Z,40.80
2018-08-06T15:30:27.333Z,40.80
2018-08-06T15:33:01.081Z,40.50
2018-08-06T15:35:34.832Z,40.50
2018-08-06T15:38:08.585Z,40.80
2018-08-06T15:40:42.378Z,40.80
2018-08-06T15:43:16.095Z,40.50
2018-08-06T15:45:50.083Z,40.20
2018-08-06T15:48:23.943Z,40.70
2018-08-06T15:50:57.745Z,40.30
2018-08-06T15:53:31.510Z,40.40
2018-08-06T15:56:05.350Z,40.00
2018-08-06T15:58:39.895Z,40.30
2018-08-06T16:01:13.643Z,40.20
2018-08-06T16:03:47.705Z,40.50
2018-08-06T16:06:22.174Z,40.50
2018-08-06T16:08:55.918Z,40.50
2018-08-06T16:11:30.513Z,40.00
2018-08-06T16:14:04.303Z,40.10
2018-08-06T16:16:38.948Z,40.00
2018-08-06T16:19:12.715Z,40.10
2018-08-06T16:21:47.418Z,40.00
2018-08-06T16:24:21.968Z,40.00
2018-08-06T16:26:55.776Z,40.00
2018-08-06T16:29:29.538Z,39.80
2018-08-06T16:32:04.295Z,40.20
2018-08-06T16:34:38.031Z,40.20
2018-08-06T16:37:12.694Z,40.20
2018-08-06T16:39:47.569Z,39.80
2018-08-06T16:42:22.090Z,39.80
2018-08-06T16:44:55.861Z,40.00
2018-08-06T16:47:29.757Z,40.50
2018-08-06T16:50:04.315Z,40.50
2018-08-06T16:52:38.436Z,40.50
2018-08-06T16:55:12.223Z,40.30
2018-08-06T16:57:46.055Z,39.80
2018-08-06T17:00:19.825Z,40.00
2018-08-06T17:02:53.604Z,40.60
2018-08-06T17:05:27.409Z,40.40
2018-08-06T17:08:01.264Z,40.40
2018-08-06T17:10:34.923Z,40.50
2018-08-06T17:13:08.708Z,40.30
2018-08-06T17:15:42.584Z,40.50
2018-08-06T17:18:16.289Z,40.60
2018-08-06T17:20:50.130Z,40.60
2018-08-06T17:23:24.759Z,40.50
2018-08-06T17:25:58.420Z,40.50
2018-08-06T17:28:32.199Z,40.40
2018-08-06T17:31:06.055Z,40.70
2018-08-06T17:33:39.940Z,40.50
2018-08-06T17:36:13.733Z,40.50
2018-08-06T17:38:47.622Z,40.80
2018-08-06T17:41:21.445Z,40.80
2018-08-06T17:43:55.462Z,40.90
2018-08-06T17:46:29.165Z,41.10
2018-08-06T17:49:03.019Z,41.00
2018-08-06T17:51:36.974Z,40.70
2018-08-06T17:54:10.748Z,41.50
2018-08-06T17:56:45.360Z,41.00
2018-08-06T17:59:19.344Z,41.00
2018-08-06T18:01:53.925Z,42.80
2018-08-06T18:04:27.700Z,42.80
2018-08-06T18:07:02.345Z,42.30
2018-08-06T18:09:36.120Z,42.20
2018-08-06T18:12:11.357Z,42.30
2018-08-06T18:14:45.133Z,42.20
2018-08-06T18:17:19.690Z,42.80
2018-08-06T18:19:53.552Z,42.80
2018-08-06T18:22:27.488Z,43.30
2018-08-06T18:25:01.412Z,43.70
2018-08-06T18:27:36.135Z,43.30
2018-08-06T18:30:10.012Z,43.30
2018-08-06T18:32:44.603Z,43.00
2018-08-06T18:35:18.404Z,43.00
2018-08-06T18:37:52.999Z,43.80
2018-08-06T18:40:26.833Z,43.70
2018-08-06T18:43:00.633Z,43.60
2018-08-06T18:45:34.387Z,43.30
2018-08-06T18:48:08.953Z,42.80
2018-08-06T18:50:43.588Z,43.20
2018-08-06T18:53:17.359Z,43.10
2018-08-06T18:55:51.887Z,43.70
2018-08-06T18:58:26.440Z,43.70
2018-08-06T19:01:00.316Z,43.70
2018-08-06T19:03:34.076Z,44.50
2018-08-06T19:06:07.824Z,45.20
2018-08-06T19:08:41.674Z,45.20
2018-08-06T19:11:15.458Z,45.90
2018-08-06T19:16:42.467Z,46.80
2018-08-06T19:19:21.716Z,46.90
2018-08-06T19:21:55.408Z,46.80
2018-08-06T19:24:29.085Z,47.10
2018-08-06T19:27:02.904Z,47.30
2018-08-06T19:29:36.735Z,47.50
2018-08-06T19:32:10.637Z,48.50
2018-08-06T19:34:44.302Z,57.40
2018-08-06T19:37:18.930Z,70.90
2018-08-06T19:39:52.762Z,70.30
2018-08-06T19:42:27.307Z,90.00
2018-08-06T19:45:01.805Z,90.70
2018-08-06T19:47:36.418Z,87.00
2018-08-06T19:50:10.336Z,86.90
2018-08-06T19:52:45.010Z,91.60
2018-08-06T19:55:18.924Z,91.10
2018-08-06T19:57:52.702Z,88.20
2018-08-06T20:00:26.348Z,88.40
2018-08-06T20:03:00.175Z,89.80
2018-08-06T20:05:33.972Z,93.90
2018-08-06T20:08:08.571Z,89.80
2018-08-06T20:10:42.440Z,89.50
2018-08-06T20:13:16.908Z,99.90
2018-08-06T20:15:51.345Z,99.90
2018-08-06T20:18:25.043Z,99.90
2018-08-06T20:20:58.886Z,99.90
2018-08-06T20:23:33.433Z,83.00
2018-08-06T20:26:08.111Z,82.80
2018-08-06T20:28:42.010Z,82.80
2018-08-06T20:31:15.858Z,85.30
2018-08-06T20:33:49.627Z,81.90
2018-08-06T20:36:23.452Z,81.50
2018-08-06T20:38:57.248Z,81.70
2018-08-06T20:41:31.134Z,81.70
2018-08-06T20:44:04.928Z,82.50
2018-08-06T20:46:38.779Z,83.10
2018-08-06T20:49:12.509Z,84.60
2018-08-06T20:51:47.213Z,85.90
2018-08-06T20:54:21.785Z,86.10
2018-08-06T20:56:56.347Z,86.60
2018-08-06T20:59:30.215Z,86.60
2018-08-06T21:02:04.787Z,90.30
2018-08-06T21:04:38.390Z,90.30
2018-08-06T21:07:12.989Z,91.30
2018-08-06T21:09:46.848Z,91.30
2018-08-06T21:12:22.378Z,92.30
2018-08-06T21:14:56.192Z,92.30
2018-08-06T21:17:30.048Z,92.10
2018-08-06T21:20:03.880Z,91.70
2018-08-06T21:22:38.473Z,93.10
2018-08-06T21:25:12.225Z,93.10
2018-08-06T21:27:46.950Z,96.90
2018-08-06T21:30:21.439Z,98.30
2018-08-06T21:32:55.529Z,98.30
2018-08-06T21:35:29.173Z,99.00
2018-08-06T21:38:02.998Z,99.60
2018-08-06T21:40:37.669Z,99.90
2018-08-06T21:43:11.464Z,99.90
2018-08-06T21:45:46.217Z,99.90
2018-08-06T21:48:19.986Z,99.90
2018-08-06T21:50:53.823Z,99.90
2018-08-06T21:53:28.355Z,99.90
2018-08-06T21:56:02.206Z,99.90
2018-08-06T21:58:36.847Z,99.90
2018-08-06T22:01:12.248Z,99.90
2018-08-06T22:03:46.194Z,99.90
2018-08-06T22:06:19.920Z,99.90
2018-08-06T22:08:53.552Z,99.90
2018-08-06T22:11:27.280Z,99.90
2018-08-06T22:14:01.147Z,99.90
2018-08-06T22:16:34.924Z,99.90
2018-08-06T22:19:08.765Z,99.90
2018-08-06T22:21:42.537Z,99.90
2018-08-06T22:24:16.260Z,99.90
2018-08-06T22:26:50.788Z,99.90
2018-08-06T22:29:24.632Z,99.90
2018-08-06T22:31:58.390Z,99.90
2018-08-06T22:34:32.373Z,99.90
2018-08-06T22:37:06.853Z,99.90
2018-08-06T22:39:40.684Z,99.90
2018-08-06T22:42:14.636Z,99.90
2018-08-06T22:44:48.372Z,99.90
2018-08-06T22:47:23.826Z,99.90
2018-08-06T22:49:57.623Z,99.90
2018-08-06T22:52:31.467Z,99.90
2018-08-06T22:55:05.290Z,99.90
2018-08-06T22:57:39.144Z,99.90
2018-08-06T23:00:13.023Z,99.90
2018-08-06T23:02:46.788Z,99.90
2018-08-06T23:05:21.453Z,99.90
2018-08-06T23:07:55.208Z,99.90
2018-08-06T23:10:28.948Z,99.90
2018-08-06T23:13:02.776Z,99.90
2018-08-06T23:15:36.683Z,99.90
2018-08-06T23:18:10.487Z,99.90
2018-08-06T23:20:45.135Z,99.90
2018-08-06T23:23:19.048Z,99.90
2018-08-06T23:25:53.679Z,99.90
2018-08-06T23:28:27.281Z,99.90
2018-08-06T23:31:01.893Z,99.90
2018-08-06T23:33:36.309Z,99.90
2018-08-06T23:36:09.979Z,99.90
2018-08-06T23:38:43.779Z,99.90
2018-08-06T23:41:17.572Z,99.90
2018-08-06T23:43:51.411Z,99.90
2018-08-06T23:46:25.244Z,99.90
2018-08-06T23:48:59.194Z,99.90
2018-08-06T23:51:33.343Z,99.90
2018-08-06T23:54:07.629Z,99.90
2018-08-06T23:56:41.674Z,99.90
2018-08-06T23:59:16.931Z,99.90
